N216TB KPNS-KMSY
Flight info
| Callsign | N216TB |
|---|---|
| Flight time | 0h 51m |
| Altitude | 14000 |
| Route | DCT LOXLY DCT SJI DCT GPT DCT SNAKI DCT JASPO DCT PEPUE DCT |
| Aircraft | PC12/L-L/C |
Departure
| Time | 2026-05-07 14:25 |
|---|---|
| Airport | Pensacola International Airport (KPNS) |
Arrival
| Time | 2026-05-07 15:16 |
|---|---|
| Airport | Louis Armstrong New Orleans International Airport (KMSY) |
| Time | Latitude | Longitude | Altitude | Speed | Heading |
|---|---|---|---|---|---|
| 2026-05-07 13:55 | 30.46770 | -87.18193 | 109 ft | 0 kts | 257° |
| 2026-05-07 14:21 | 30.46760 | -87.18204 | 109 ft | 0 kts | 200° |
| 2026-05-07 14:21 | 30.46737 | -87.18244 | 109 ft | 8 kts | 251° |
| 2026-05-07 14:22 | 30.46728 | -87.18283 | 109 ft | 7 kts | 259° |
| 2026-05-07 14:22 | 30.46714 | -87.18359 | 109 ft | 12 kts | 255° |
| 2026-05-07 14:22 | 30.46698 | -87.18429 | 109 ft | 8 kts | 258° |
| 2026-05-07 14:22 | 30.46686 | -87.18500 | 108 ft | 9 kts | 256° |
| 2026-05-07 14:23 | 30.46678 | -87.18545 | 108 ft | 0 kts | 260° |
| 2026-05-07 14:23 | 30.46673 | -87.18566 | 108 ft | 9 kts | 255° |
| 2026-05-07 14:23 | 30.46665 | -87.18615 | 108 ft | 6 kts | 285° |
| 2026-05-07 14:24 | 30.46691 | -87.18640 | 107 ft | 0 kts | 342° |
| 2026-05-07 14:24 | 30.46702 | -87.18644 | 107 ft | 15 kts | 342° |
| 2026-05-07 14:24 | 30.47037 | -87.18738 | 110 ft | 82 kts | 352° |
| 2026-05-07 14:24 | 30.47753 | -87.18899 | 212 ft | 121 kts | 348° |
| 2026-05-07 14:25 | 30.48678 | -87.18946 | 435 ft | 154 kts | 349° |
| 2026-05-07 14:25 | 30.49859 | -87.19126 | 818 ft | 181 kts | 346° |
| 2026-05-07 14:25 | 30.51122 | -87.19345 | 1316 ft | 192 kts | 346° |
| 2026-05-07 14:25 | 30.52267 | -87.19739 | 1787 ft | 196 kts | 327° |
| 2026-05-07 14:26 | 30.53492 | -87.20333 | 2287 ft | 204 kts | 334° |
| 2026-05-07 14:26 | 30.54870 | -87.20743 | 2813 ft | 205 kts | 340° |
| 2026-05-07 14:26 | 30.56272 | -87.21094 | 3329 ft | 207 kts | 340° |
| 2026-05-07 14:27 | 30.57689 | -87.21472 | 3834 ft | 210 kts | 339° |
| 2026-05-07 14:27 | 30.59123 | -87.21866 | 4348 ft | 214 kts | 339° |
| 2026-05-07 14:27 | 30.60567 | -87.22261 | 4858 ft | 218 kts | 339° |
| 2026-05-07 14:27 | 30.62061 | -87.22668 | 5364 ft | 221 kts | 339° |
| 2026-05-07 14:28 | 30.63554 | -87.23071 | 5880 ft | 220 kts | 338° |
| 2026-05-07 14:28 | 30.65048 | -87.23478 | 6392 ft | 221 kts | 338° |
| 2026-05-07 14:28 | 30.66551 | -87.23889 | 6873 ft | 221 kts | 338° |
| 2026-05-07 14:28 | 30.68040 | -87.24294 | 7366 ft | 220 kts | 337° |
| 2026-05-07 14:29 | 30.69525 | -87.24698 | 7867 ft | 219 kts | 337° |
| 2026-05-07 14:29 | 30.71003 | -87.25102 | 8372 ft | 218 kts | 337° |
| 2026-05-07 14:29 | 30.72459 | -87.25501 | 8876 ft | 218 kts | 336° |
| 2026-05-07 14:29 | 30.73935 | -87.25904 | 9400 ft | 218 kts | 336° |
| 2026-05-07 14:30 | 30.75327 | -87.26475 | 9924 ft | 207 kts | 323° |
| 2026-05-07 14:30 | 30.76515 | -87.27358 | 10406 ft | 199 kts | 312° |
| 2026-05-07 14:30 | 30.77483 | -87.28473 | 10890 ft | 193 kts | 301° |
| 2026-05-07 14:30 | 30.78213 | -87.29754 | 11381 ft | 188 kts | 291° |
| 2026-05-07 14:31 | 30.78699 | -87.31149 | 11887 ft | 185 kts | 282° |
| 2026-05-07 14:31 | 30.78938 | -87.32605 | 12401 ft | 183 kts | 272° |
| 2026-05-07 14:31 | 30.78933 | -87.34074 | 12922 ft | 181 kts | 265° |
| 2026-05-07 14:31 | 30.78844 | -87.35513 | 13445 ft | 181 kts | 265° |
| 2026-05-07 14:32 | 30.78763 | -87.36982 | 13872 ft | 185 kts | 265° |
| 2026-05-07 14:32 | 30.78675 | -87.38524 | 13972 ft | 199 kts | 265° |
| 2026-05-07 14:32 | 30.78578 | -87.40172 | 13977 ft | 209 kts | 265° |
| 2026-05-07 14:32 | 30.78478 | -87.41878 | 13977 ft | 214 kts | 265° |
| 2026-05-07 14:33 | 30.78376 | -87.43614 | 13976 ft | 216 kts | 265° |
| 2026-05-07 14:33 | 30.78273 | -87.45362 | 13974 ft | 216 kts | 265° |
| 2026-05-07 14:33 | 30.78169 | -87.47104 | 13980 ft | 216 kts | 265° |
| 2026-05-07 14:33 | 30.78066 | -87.48851 | 13974 ft | 217 kts | 265° |
| 2026-05-07 14:34 | 30.77963 | -87.50575 | 13975 ft | 217 kts | 265° |
| 2026-05-07 14:34 | 30.77859 | -87.52320 | 13978 ft | 217 kts | 265° |
| 2026-05-07 14:34 | 30.77755 | -87.54066 | 13980 ft | 217 kts | 265° |
| 2026-05-07 14:34 | 30.77650 | -87.55820 | 13980 ft | 217 kts | 265° |
| 2026-05-07 14:35 | 30.77546 | -87.57565 | 13978 ft | 217 kts | 265° |
| 2026-05-07 14:35 | 30.77440 | -87.59314 | 13977 ft | 217 kts | 265° |
| 2026-05-07 14:35 | 30.77334 | -87.61063 | 13980 ft | 217 kts | 265° |
| 2026-05-07 14:35 | 30.77229 | -87.62809 | 13981 ft | 217 kts | 265° |
| 2026-05-07 14:36 | 30.77124 | -87.64538 | 13980 ft | 217 kts | 265° |
| 2026-05-07 14:36 | 30.77018 | -87.66288 | 13984 ft | 217 kts | 265° |
| 2026-05-07 14:36 | 30.76911 | -87.68041 | 13984 ft | 217 kts | 265° |
| 2026-05-07 14:36 | 30.76804 | -87.69793 | 13984 ft | 217 kts | 265° |
| 2026-05-07 14:37 | 30.76697 | -87.71546 | 13987 ft | 217 kts | 265° |
| 2026-05-07 14:37 | 30.76482 | -87.75051 | 13986 ft | 218 kts | 265° |
| 2026-05-07 14:37 | 30.76373 | -87.76808 | 13985 ft | 217 kts | 265° |
| 2026-05-07 14:38 | 30.76266 | -87.78561 | 13993 ft | 217 kts | 265° |
| 2026-05-07 14:38 | 30.76160 | -87.80288 | 13993 ft | 217 kts | 265° |
| 2026-05-07 14:38 | 30.76051 | -87.82040 | 13996 ft | 218 kts | 265° |
| 2026-05-07 14:38 | 30.75942 | -87.83798 | 13993 ft | 218 kts | 265° |
| 2026-05-07 14:39 | 30.75833 | -87.85552 | 13996 ft | 218 kts | 265° |
| 2026-05-07 14:39 | 30.75723 | -87.87309 | 13998 ft | 218 kts | 265° |
| 2026-05-07 14:39 | 30.75613 | -87.89062 | 13998 ft | 218 kts | 265° |
| 2026-05-07 14:39 | 30.75503 | -87.90822 | 14003 ft | 218 kts | 265° |
| 2026-05-07 14:40 | 30.75393 | -87.92581 | 13998 ft | 218 kts | 265° |
| 2026-05-07 14:40 | 30.75283 | -87.94337 | 14000 ft | 218 kts | 265° |
| 2026-05-07 14:40 | 30.75173 | -87.96072 | 14001 ft | 218 kts | 265° |
| 2026-05-07 14:40 | 30.75062 | -87.97828 | 14002 ft | 218 kts | 265° |
| 2026-05-07 14:41 | 30.74951 | -87.99589 | 14004 ft | 218 kts | 265° |
| 2026-05-07 14:41 | 30.74840 | -88.01349 | 14003 ft | 218 kts | 265° |
| 2026-05-07 14:41 | 30.74728 | -88.03106 | 14002 ft | 218 kts | 265° |
| 2026-05-07 14:41 | 30.74616 | -88.04867 | 14005 ft | 218 kts | 265° |
| 2026-05-07 14:42 | 30.74503 | -88.06625 | 14002 ft | 218 kts | 265° |
| 2026-05-07 14:42 | 30.74392 | -88.08359 | 14005 ft | 218 kts | 265° |
| 2026-05-07 14:42 | 30.74280 | -88.10116 | 14003 ft | 218 kts | 265° |
| 2026-05-07 14:42 | 30.74167 | -88.11875 | 14027 ft | 218 kts | 265° |
| 2026-05-07 14:43 | 30.74054 | -88.13631 | 14033 ft | 218 kts | 265° |
| 2026-05-07 14:43 | 30.73940 | -88.15393 | 14031 ft | 218 kts | 265° |
| 2026-05-07 14:43 | 30.73827 | -88.17150 | 14033 ft | 218 kts | 265° |
| 2026-05-07 14:43 | 30.73713 | -88.18909 | 14034 ft | 218 kts | 265° |
| 2026-05-07 14:44 | 30.73599 | -88.20669 | 14051 ft | 218 kts | 265° |
| 2026-05-07 14:44 | 30.73484 | -88.22424 | 14051 ft | 218 kts | 265° |
| 2026-05-07 14:44 | 30.73371 | -88.24157 | 14051 ft | 218 kts | 265° |
| 2026-05-07 14:44 | 30.73256 | -88.25913 | 14053 ft | 218 kts | 265° |
| 2026-05-07 14:45 | 30.73141 | -88.27675 | 14052 ft | 219 kts | 265° |
| 2026-05-07 14:45 | 30.73026 | -88.29436 | 14053 ft | 219 kts | 265° |
| 2026-05-07 14:45 | 30.72910 | -88.31201 | 14053 ft | 219 kts | 265° |
| 2026-05-07 14:45 | 30.72794 | -88.32960 | 14049 ft | 219 kts | 265° |
| 2026-05-07 14:46 | 30.72657 | -88.34720 | 14049 ft | 218 kts | 262° |
| 2026-05-07 14:46 | 30.72285 | -88.36437 | 14042 ft | 220 kts | 253° |
| 2026-05-07 14:46 | 30.71670 | -88.38041 | 14046 ft | 222 kts | 245° |
| 2026-05-07 14:46 | 30.70956 | -88.39634 | 14039 ft | 222 kts | 246° |
| 2026-05-07 14:47 | 30.70257 | -88.41232 | 14036 ft | 222 kts | 246° |
| 2026-05-07 14:47 | 30.69558 | -88.42823 | 14034 ft | 221 kts | 246° |
| 2026-05-07 14:47 | 30.68854 | -88.44415 | 14028 ft | 221 kts | 246° |
| 2026-05-07 14:47 | 30.68151 | -88.46005 | 14030 ft | 221 kts | 246° |
| 2026-05-07 14:48 | 30.67448 | -88.47597 | 14025 ft | 222 kts | 246° |
| 2026-05-07 14:48 | 30.66753 | -88.49170 | 14009 ft | 222 kts | 246° |
| 2026-05-07 14:48 | 30.66047 | -88.50766 | 14009 ft | 222 kts | 246° |
| 2026-05-07 14:48 | 30.65341 | -88.52361 | 14011 ft | 222 kts | 246° |
| 2026-05-07 14:49 | 30.64633 | -88.53960 | 14012 ft | 222 kts | 246° |
| 2026-05-07 14:49 | 30.63928 | -88.55555 | 14016 ft | 223 kts | 246° |
| 2026-05-07 14:49 | 30.63219 | -88.57154 | 14012 ft | 223 kts | 246° |
| 2026-05-07 14:49 | 30.62510 | -88.58752 | 14010 ft | 222 kts | 246° |
| 2026-05-07 14:50 | 30.61804 | -88.60345 | 14007 ft | 222 kts | 246° |
| 2026-05-07 14:50 | 30.61106 | -88.61919 | 14007 ft | 222 kts | 246° |
| 2026-05-07 14:50 | 30.60402 | -88.63506 | 14009 ft | 222 kts | 246° |
| 2026-05-07 14:50 | 30.59694 | -88.65100 | 14005 ft | 222 kts | 246° |
| 2026-05-07 14:51 | 30.58989 | -88.66688 | 14006 ft | 222 kts | 246° |
| 2026-05-07 14:51 | 30.58281 | -88.68282 | 14007 ft | 222 kts | 246° |
| 2026-05-07 14:51 | 30.57574 | -88.69873 | 14004 ft | 221 kts | 246° |
| 2026-05-07 14:51 | 30.56869 | -88.71458 | 14003 ft | 221 kts | 246° |
| 2026-05-07 14:52 | 30.56162 | -88.73047 | 14001 ft | 221 kts | 246° |
| 2026-05-07 14:52 | 30.55457 | -88.74631 | 14000 ft | 221 kts | 246° |
| 2026-05-07 14:52 | 30.54750 | -88.76218 | 13986 ft | 222 kts | 246° |
| 2026-05-07 14:52 | 30.54052 | -88.77787 | 13982 ft | 222 kts | 246° |
| 2026-05-07 14:53 | 30.53344 | -88.79375 | 13988 ft | 222 kts | 246° |
| 2026-05-07 14:53 | 30.52635 | -88.80965 | 13987 ft | 222 kts | 246° |
| 2026-05-07 14:53 | 30.51923 | -88.82561 | 13986 ft | 222 kts | 246° |
| 2026-05-07 14:53 | 30.51212 | -88.84156 | 13987 ft | 223 kts | 246° |
| 2026-05-07 14:54 | 30.50501 | -88.85748 | 13995 ft | 222 kts | 246° |
| 2026-05-07 14:54 | 30.49790 | -88.87340 | 13993 ft | 222 kts | 246° |
| 2026-05-07 14:54 | 30.49080 | -88.88929 | 13996 ft | 222 kts | 246° |
| 2026-05-07 14:54 | 30.48371 | -88.90516 | 13993 ft | 222 kts | 246° |
| 2026-05-07 14:55 | 30.47671 | -88.92081 | 13993 ft | 222 kts | 246° |
| 2026-05-07 14:55 | 30.46960 | -88.93672 | 13995 ft | 222 kts | 246° |
| 2026-05-07 14:55 | 30.46248 | -88.95262 | 13992 ft | 222 kts | 246° |
| 2026-05-07 14:55 | 30.45537 | -88.96851 | 13993 ft | 222 kts | 246° |
| 2026-05-07 14:56 | 30.44826 | -88.98438 | 13994 ft | 222 kts | 246° |
| 2026-05-07 14:56 | 30.44114 | -89.00028 | 13993 ft | 222 kts | 246° |
| 2026-05-07 14:56 | 30.43412 | -89.01593 | 14009 ft | 222 kts | 246° |
| 2026-05-07 14:56 | 30.42693 | -89.03198 | 14011 ft | 222 kts | 246° |
| 2026-05-07 14:57 | 30.41992 | -89.04761 | 14012 ft | 222 kts | 246° |
| 2026-05-07 14:57 | 30.41280 | -89.06347 | 14009 ft | 222 kts | 246° |
| 2026-05-07 14:57 | 30.40596 | -89.07947 | 14011 ft | 220 kts | 250° |
| 2026-05-07 14:57 | 30.40084 | -89.09615 | 14011 ft | 220 kts | 252° |
| 2026-05-07 14:58 | 30.39560 | -89.11281 | 14010 ft | 220 kts | 252° |
| 2026-05-07 14:58 | 30.39032 | -89.12947 | 14012 ft | 221 kts | 252° |
| 2026-05-07 14:58 | 30.38507 | -89.14619 | 14011 ft | 220 kts | 252° |
| 2026-05-07 14:58 | 30.37993 | -89.16262 | 14012 ft | 220 kts | 252° |
| 2026-05-07 14:59 | 30.37469 | -89.17933 | 14014 ft | 221 kts | 252° |
| 2026-05-07 14:59 | 30.36942 | -89.19610 | 13980 ft | 223 kts | 252° |
| 2026-05-07 14:59 | 30.36408 | -89.21312 | 13602 ft | 226 kts | 252° |
| 2026-05-07 14:59 | 30.35870 | -89.23025 | 13222 ft | 227 kts | 252° |
| 2026-05-07 15:00 | 30.35328 | -89.24747 | 12848 ft | 227 kts | 252° |
| 2026-05-07 15:00 | 30.34786 | -89.26468 | 12469 ft | 228 kts | 252° |
| 2026-05-07 15:00 | 30.34250 | -89.28170 | 12107 ft | 228 kts | 252° |
| 2026-05-07 15:00 | 30.33708 | -89.29892 | 11746 ft | 228 kts | 252° |
| 2026-05-07 15:01 | 30.33166 | -89.31612 | 11388 ft | 227 kts | 252° |
| 2026-05-07 15:01 | 30.32623 | -89.33335 | 11028 ft | 228 kts | 252° |
| 2026-05-07 15:01 | 30.32080 | -89.35057 | 10677 ft | 228 kts | 252° |
| 2026-05-07 15:01 | 30.31535 | -89.36784 | 10331 ft | 228 kts | 252° |
| 2026-05-07 15:02 | 30.30991 | -89.38505 | 9987 ft | 228 kts | 252° |
| 2026-05-07 15:02 | 30.30447 | -89.40227 | 9624 ft | 227 kts | 252° |
| 2026-05-07 15:02 | 30.29905 | -89.41941 | 9245 ft | 227 kts | 252° |
| 2026-05-07 15:02 | 30.29371 | -89.43630 | 8875 ft | 226 kts | 252° |
| 2026-05-07 15:03 | 30.28832 | -89.45333 | 8503 ft | 225 kts | 252° |
| 2026-05-07 15:03 | 30.28294 | -89.47032 | 8145 ft | 224 kts | 252° |
| 2026-05-07 15:03 | 30.27765 | -89.48702 | 8014 ft | 217 kts | 252° |
| 2026-05-07 15:03 | 30.27252 | -89.50320 | 8007 ft | 212 kts | 252° |
| 2026-05-07 15:04 | 30.26745 | -89.51920 | 8004 ft | 212 kts | 252° |
| 2026-05-07 15:04 | 30.26238 | -89.53518 | 8013 ft | 212 kts | 252° |
| 2026-05-07 15:04 | 30.25738 | -89.55094 | 8011 ft | 212 kts | 252° |
| 2026-05-07 15:04 | 30.25231 | -89.56691 | 8013 ft | 211 kts | 252° |
| 2026-05-07 15:05 | 30.24725 | -89.58281 | 7959 ft | 212 kts | 252° |
| 2026-05-07 15:05 | 30.24206 | -89.59920 | 7593 ft | 220 kts | 252° |
| 2026-05-07 15:05 | 30.23673 | -89.61593 | 7249 ft | 223 kts | 252° |
| 2026-05-07 15:05 | 30.23136 | -89.63281 | 6906 ft | 224 kts | 251° |
| 2026-05-07 15:06 | 30.22597 | -89.64974 | 6553 ft | 224 kts | 251° |
| 2026-05-07 15:06 | 30.22059 | -89.66663 | 6203 ft | 224 kts | 252° |
| 2026-05-07 15:06 | 30.21520 | -89.68353 | 5832 ft | 223 kts | 251° |
| 2026-05-07 15:06 | 30.20992 | -89.70010 | 5476 ft | 223 kts | 251° |
| 2026-05-07 15:07 | 30.20455 | -89.71692 | 5115 ft | 223 kts | 251° |
| 2026-05-07 15:07 | 30.19920 | -89.73371 | 4762 ft | 223 kts | 251° |
| 2026-05-07 15:07 | 30.19381 | -89.75057 | 4395 ft | 224 kts | 251° |
| 2026-05-07 15:07 | 30.18843 | -89.76741 | 4079 ft | 222 kts | 251° |
| 2026-05-07 15:08 | 30.18317 | -89.78387 | 4022 ft | 216 kts | 251° |
| 2026-05-07 15:08 | 30.17801 | -89.79999 | 4020 ft | 212 kts | 251° |
| 2026-05-07 15:08 | 30.17294 | -89.81585 | 4020 ft | 210 kts | 251° |
| 2026-05-07 15:08 | 30.16786 | -89.83174 | 4020 ft | 210 kts | 251° |
| 2026-05-07 15:09 | 30.16286 | -89.84732 | 4014 ft | 209 kts | 251° |
| 2026-05-07 15:09 | 30.15780 | -89.86313 | 4025 ft | 210 kts | 251° |
| 2026-05-07 15:09 | 30.15275 | -89.87888 | 4029 ft | 209 kts | 251° |
| 2026-05-07 15:09 | 30.14862 | -89.89472 | 4034 ft | 205 kts | 260° |
| 2026-05-07 15:10 | 30.14643 | -89.91102 | 4032 ft | 206 kts | 261° |
| 2026-05-07 15:10 | 30.14398 | -89.92740 | 4042 ft | 208 kts | 261° |
| 2026-05-07 15:10 | 30.14152 | -89.94391 | 4040 ft | 209 kts | 261° |
| 2026-05-07 15:10 | 30.13909 | -89.96049 | 4038 ft | 208 kts | 261° |
| 2026-05-07 15:11 | 30.13671 | -89.97672 | 4037 ft | 207 kts | 261° |
| 2026-05-07 15:11 | 30.13430 | -89.99311 | 3964 ft | 209 kts | 261° |
| 2026-05-07 15:11 | 30.13184 | -90.00996 | 3706 ft | 216 kts | 260° |
| 2026-05-07 15:11 | 30.12932 | -90.02705 | 3444 ft | 216 kts | 260° |
| 2026-05-07 15:12 | 30.12678 | -90.04429 | 3181 ft | 219 kts | 260° |
| 2026-05-07 15:12 | 30.12425 | -90.06148 | 2911 ft | 217 kts | 260° |
| 2026-05-07 15:12 | 30.12171 | -90.07873 | 2645 ft | 219 kts | 261° |
| 2026-05-07 15:12 | 30.11915 | -90.09610 | 2375 ft | 218 kts | 260° |
| 2026-05-07 15:13 | 30.11663 | -90.11312 | 2109 ft | 218 kts | 262° |
| 2026-05-07 15:13 | 30.11409 | -90.13025 | 2041 ft | 213 kts | 261° |
| 2026-05-07 15:13 | 30.11161 | -90.14699 | 2044 ft | 212 kts | 261° |
| 2026-05-07 15:13 | 30.10913 | -90.16373 | 2036 ft | 210 kts | 261° |
| 2026-05-07 15:14 | 30.10668 | -90.18030 | 2027 ft | 209 kts | 261° |
| 2026-05-07 15:14 | 30.10371 | -90.19681 | 2024 ft | 211 kts | 252° |
| 2026-05-07 15:14 | 30.09569 | -90.21096 | 2026 ft | 215 kts | 228° |
| 2026-05-07 15:14 | 30.08296 | -90.22021 | 2031 ft | 218 kts | 206° |
| 2026-05-07 15:15 | 30.06889 | -90.22675 | 1848 ft | 215 kts | 202° |
| 2026-05-07 15:15 | 30.05458 | -90.23127 | 1584 ft | 213 kts | 189° |
| 2026-05-07 15:15 | 30.04040 | -90.23353 | 1520 ft | 205 kts | 197° |
| 2026-05-07 15:15 | 30.02687 | -90.23791 | 1509 ft | 190 kts | 200° |
| 2026-05-07 15:16 | 30.01553 | -90.24160 | 668 ft | 161 kts | 198° |
| 2026-05-07 15:16 | 30.00602 | -90.24450 | 161 ft | 126 kts | 198° |
| 2026-05-07 15:16 | 29.99860 | -90.24694 | 7 ft | 96 kts | 196° |
| 2026-05-07 15:16 | 29.99403 | -90.24845 | 9 ft | 41 kts | 194° |
| 2026-05-07 15:17 | 29.99094 | -90.24946 | 6 ft | 44 kts | 197° |
| 2026-05-07 15:17 | 29.98865 | -90.25020 | 2 ft | 19 kts | 205° |
| 2026-05-07 15:17 | 29.98809 | -90.25143 | 3 ft | 25 kts | 293° |
| 2026-05-07 15:17 | 29.98863 | -90.25356 | 6 ft | 37 kts | 281° |